Time;durP1;ratioP1;P1;durP2;ratioP2;P2;SDS_P1;SDS_P2;PMS_P1;PMS_P2;Temp;Humidity;BMP_temperature;BMP_pressure;BME280_temperature;BME280_humidity;BME280_pressure;Samples;Min_cycle;Max_cycle;Signal;HPM_P1;HPM_P2
2023/08/24 00:01:29;;;;;;;7.53;6.80;;;;;;;;;;5115637;28;20726;-78
2023/08/24 00:03:57;;;;;;;7.77;7.07;;;;;;;;;;5113705;28;20206;-79
2023/08/24 00:06:24;;;;;;;7.90;6.80;;;;;;;;;;5115445;28;20662;-78
2023/08/24 00:08:51;;;;;;;6.73;6.20;;;;;;;;;;5114271;28;20200;-78
2023/08/24 00:11:18;;;;;;;8.20;7.50;;;;;;;;;;5115087;28;20253;-78
2023/08/24 00:13:48;;;;;;;8.07;7.27;;;;;;;;;;5115388;28;20568;-78
2023/08/24 00:16:15;;;;;;;7.60;7.00;;;;;;;;;;5115032;28;20741;-78
2023/08/24 00:18:42;;;;;;;7.93;7.13;;;;;;;;;;5110057;28;20219;-78
2023/08/24 00:21:10;;;;;;;7.50;6.90;;;;;;;;;;5094477;28;20222;-78
2023/08/24 00:23:38;;;;;;;8.20;7.40;;;;;;;;;;5102743;28;20200;-78
2023/08/24 00:26:05;;;;;;;8.03;7.33;;;;;;;;;;5100502;28;20202;-78
2023/08/24 00:28:32;;;;;;;8.00;7.23;;;;;;;;;;5114926;28;20210;-79
2023/08/24 00:30:58;;;;;;;9.57;8.00;;;;;;;;;;5113727;28;20226;-79
2023/08/24 00:33:25;;;;;;;7.80;7.10;;;;;;;;;;5114880;28;20658;-79
2023/08/24 00:35:52;;;;;;;8.03;7.33;;;;;;;;;;5113796;28;20199;-78
2023/08/24 00:38:20;;;;;;;7.87;7.17;;;;;;;;;;5115130;28;20286;-79
2023/08/24 00:40:47;;;;;;;8.60;7.60;;;;;;;;;;5115163;28;20203;-78
2023/08/24 00:43:14;;;;;;;8.87;8.17;;;;;;;;;;5114594;28;20200;-78
2023/08/24 00:45:41;;;;;;;8.00;7.40;;;;;;;;;;5115180;28;20200;-78
2023/08/24 00:48:08;;;;;;;8.23;7.53;;;;;;;;;;5114546;28;20195;-78
2023/08/24 00:50:35;;;;;;;7.97;7.27;;;;;;;;;;5112994;28;20226;-78
2023/08/24 00:53:02;;;;;;;9.23;8.40;;;;;;;;;;5114603;28;20211;-78
2023/08/24 00:55:31;;;;;;;7.77;7.07;;;;;;;;;;5114794;28;20314;-78
2023/08/24 00:57:59;;;;;;;8.93;8.13;;;;;;;;;;5114904;28;20214;-79
2023/08/24 01:00:26;;;;;;;8.33;7.63;;;;;;;;;;5113465;28;20204;-78
2023/08/24 01:02:52;;;;;;;9.77;8.67;;;;;;;;;;5114172;28;20203;-78
2023/08/24 01:05:19;;;;;;;8.10;7.30;;;;;;;;;;5106948;28;20250;-78
2023/08/24 01:07:46;;;;;;;8.30;7.60;;;;;;;;;;5102801;28;20195;-78
2023/08/24 01:10:13;;;;;;;7.87;7.17;;;;;;;;;;5113573;28;20226;-78
2023/08/24 01:12:59;;;;;;;8.40;7.70;;;;;;;;;;5113739;28;20202;-78
2023/08/24 01:15:29;;;;;;;8.53;7.30;;;;;;;;;;5093354;28;20569;-79
2023/08/24 01:17:59;;;;;;;7.93;7.30;;;;;;;;;;5092772;28;20200;-78
2023/08/24 01:20:27;;;;;;;7.70;7.10;;;;;;;;;;5092814;28;20207;-78
2023/08/24 01:22:59;;;;;;;8.07;7.27;;;;;;;;;;5092957;28;20230;-78
2023/08/24 01:25:34;;;;;;;9.00;8.20;;;;;;;;;;5093178;28;20219;-79
2023/08/24 01:28:03;;;;;;;8.33;7.53;;;;;;;;;;5093900;28;20231;-79
2023/08/24 01:30:31;;;;;;;8.83;8.00;;;;;;;;;;5091902;28;20729;-79
2023/08/24 01:32:57;;;;;;;8.47;7.67;;;;;;;;;;5093700;28;20223;-78
2023/08/24 01:35:24;;;;;;;8.30;7.60;;;;;;;;;;5093418;28;20201;-78
2023/08/24 01:37:51;;;;;;;8.03;7.30;;;;;;;;;;5092095;28;20196;-79
2023/08/24 01:40:21;;;;;;;8.63;7.73;;;;;;;;;;5103961;28;20240;-79
2023/08/24 01:42:53;;;;;;;8.20;7.50;;;;;;;;;;5113292;28;20696;-79
2023/08/24 01:45:23;;;;;;;9.87;8.90;;;;;;;;;;5100108;28;20245;-79
2023/08/24 01:47:50;;;;;;;8.37;7.60;;;;;;;;;;5098236;28;20202;-79
2023/08/24 01:50:17;;;;;;;8.67;7.77;;;;;;;;;;5112914;28;20222;-79
2023/08/24 01:52:44;;;;;;;8.30;7.50;;;;;;;;;;5112632;28;20207;-79
2023/08/24 01:55:12;;;;;;;8.67;7.87;;;;;;;;;;5113100;28;20219;-79
2023/08/24 01:57:39;;;;;;;15.60;9.00;;;;;;;;;;5113103;28;20198;-79
2023/08/24 02:00:07;;;;;;;9.93;8.63;;;;;;;;;;5113674;28;20206;-79
2023/08/24 02:02:37;;;;;;;8.77;7.97;;;;;;;;;;5113552;28;20195;-79
2023/08/24 02:05:05;;;;;;;12.90;8.37;;;;;;;;;;5113079;28;20192;-79
2023/08/24 02:07:32;;;;;;;9.13;8.23;;;;;;;;;;5113719;28;20209;-79
2023/08/24 02:09:58;;;;;;;8.70;7.90;;;;;;;;;;5113104;28;20211;-79
2023/08/24 02:12:25;;;;;;;8.83;8.07;;;;;;;;;;5112946;28;20200;-79
2023/08/24 02:14:52;;;;;;;8.70;7.40;;;;;;;;;;5096210;28;20196;-79
2023/08/24 02:17:19;;;;;;;25.23;9.13;;;;;;;;;;5100840;28;20196;-80
2023/08/24 02:19:47;;;;;;;11.73;8.33;;;;;;;;;;5112055;28;20203;-79
2023/08/24 02:22:14;;;;;;;8.70;7.83;;;;;;;;;;5111898;28;20589;-80
2023/08/24 02:24:41;;;;;;;8.83;7.50;;;;;;;;;;5111004;28;20196;-79
2023/08/24 02:27:08;;;;;;;8.20;7.50;;;;;;;;;;5097905;28;20586;-79
2023/08/24 02:29:35;;;;;;;10.27;8.87;;;;;;;;;;5107508;28;20206;-79
2023/08/24 02:32:02;;;;;;;9.20;7.97;;;;;;;;;;5111900;28;20191;-79
2023/08/24 02:34:29;;;;;;;9.97;8.90;;;;;;;;;;5112071;28;20207;-79
2023/08/24 02:36:57;;;;;;;8.83;7.93;;;;;;;;;;5111808;28;20196;-79
2023/08/24 02:39:25;;;;;;;9.73;8.50;;;;;;;;;;5111982;28;20222;-79
2023/08/24 02:41:52;;;;;;;10.80;8.33;;;;;;;;;;5105776;28;20295;-78
2023/08/24 02:44:19;;;;;;;8.03;7.33;;;;;;;;;;5100858;28;20721;-79
2023/08/24 02:46:45;;;;;;;8.70;7.53;;;;;;;;;;5111070;28;20681;-78
2023/08/24 02:49:12;;;;;;;10.30;9.33;;;;;;;;;;5111825;28;20203;-78
2023/08/24 02:51:40;;;;;;;11.17;8.73;;;;;;;;;;5111094;28;20219;-79
2023/08/24 02:54:09;;;;;;;11.40;7.87;;;;;;;;;;5111464;28;20219;-79
2023/08/24 02:56:35;;;;;;;12.90;9.40;;;;;;;;;;5111745;28;20195;-79
2023/08/24 02:59:02;;;;;;;10.80;8.97;;;;;;;;;;5111499;28;20202;-78
2023/08/24 03:01:29;;;;;;;9.13;8.23;;;;;;;;;;5112729;28;20206;-79
2023/08/24 03:03:56;;;;;;;10.17;7.90;;;;;;;;;;5103579;28;20772;-78
2023/08/24 03:06:24;;;;;;;10.07;9.17;;;;;;;;;;5092253;28;20196;-78
2023/08/24 03:08:51;;;;;;;8.90;8.10;;;;;;;;;;5091795;28;20204;-78
2023/08/24 03:11:19;;;;;;;14.37;9.33;;;;;;;;;;5091562;28;20228;-78
2023/08/24 03:13:46;;;;;;;9.40;8.10;;;;;;;;;;5091935;28;20199;-79
2023/08/24 03:16:12;;;;;;;10.27;9.27;;;;;;;;;;5109868;28;20191;-78
2023/08/24 03:18:39;;;;;;;9.20;8.40;;;;;;;;;;5111451;28;20202;-78
2023/08/24 03:21:07;;;;;;;9.23;8.07;;;;;;;;;;5111897;28;20198;-78
2023/08/24 03:23:33;;;;;;;11.37;8.70;;;;;;;;;;5111231;28;20195;-79
2023/08/24 03:26:00;;;;;;;10.97;8.97;;;;;;;;;;5111512;28;20207;-79
2023/08/24 03:28:29;;;;;;;11.33;9.53;;;;;;;;;;5110960;28;20196;-78
2023/08/24 03:30:56;;;;;;;9.20;8.50;;;;;;;;;;5111748;28;20227;-78
2023/08/24 03:33:23;;;;;;;9.40;8.50;;;;;;;;;;5111936;28;20290;-78
2023/08/24 03:35:50;;;;;;;9.90;9.10;;;;;;;;;;5111924;28;20662;-83
2023/08/24 03:38:17;;;;;;;21.37;9.87;;;;;;;;;;5112101;28;20236;-83
2023/08/24 03:40:44;;;;;;;9.97;8.83;;;;;;;;;;5110731;28;20195;-83
2023/08/24 03:43:10;;;;;;;9.83;8.93;;;;;;;;;;5102610;28;20204;-83
2023/08/24 03:45:38;;;;;;;9.27;8.53;;;;;;;;;;5091895;28;20566;-83
2023/08/24 03:48:06;;;;;;;10.53;9.53;;;;;;;;;;5090384;28;20200;-83
2023/08/24 03:50:33;;;;;;;10.30;9.27;;;;;;;;;;5106384;28;20241;-83
2023/08/24 03:52:59;;;;;;;14.47;9.80;;;;;;;;;;5103823;28;20197;-83
2023/08/24 03:55:26;;;;;;;12.43;9.60;;;;;;;;;;5091970;28;20317;-83
2023/08/24 03:57:54;;;;;;;9.23;8.43;;;;;;;;;;5108850;28;20196;-83
2023/08/24 04:00:21;;;;;;;10.63;9.40;;;;;;;;;;5091082;28;20720;-83
2023/08/24 04:02:49;;;;;;;10.13;9.23;;;;;;;;;;5091307;28;20195;-83
2023/08/24 04:05:16;;;;;;;10.53;9.43;;;;;;;;;;5090521;28;20200;-82
2023/08/24 04:07:42;;;;;;;10.57;9.33;;;;;;;;;;5095430;28;20200;-83
2023/08/24 04:10:10;;;;;;;9.90;9.00;;;;;;;;;;5109139;28;20662;-79
2023/08/24 04:12:37;;;;;;;11.17;9.77;;;;;;;;;;5108002;28;20284;-78
2023/08/24 04:15:05;;;;;;;11.17;10.07;;;;;;;;;;5114829;28;20196;-77
2023/08/24 04:17:32;;;;;;;11.07;9.63;;;;;;;;;;5108664;28;20199;-77
2023/08/24 04:20:00;;;;;;;9.00;8.27;;;;;;;;;;5103410;28;20622;-77
2023/08/24 04:22:27;;;;;;;12.07;8.97;;;;;;;;;;5096126;28;20291;-77
2023/08/24 04:24:53;;;;;;;9.83;8.93;;;;;;;;;;5100978;28;20192;-77
2023/08/24 04:27:21;;;;;;;11.10;8.77;;;;;;;;;;5099483;28;20192;-77
2023/08/24 04:29:48;;;;;;;10.90;8.30;;;;;;;;;;5106229;28;20198;-77
2023/08/24 04:32:15;;;;;;;9.03;8.30;;;;;;;;;;5114781;28;20241;-77
2023/08/24 04:34:42;;;;;;;9.07;8.27;;;;;;;;;;5108543;28;20196;-77
2023/08/24 04:37:10;;;;;;;10.50;9.30;;;;;;;;;;5094082;28;20288;-77
2023/08/24 04:39:37;;;;;;;10.97;9.23;;;;;;;;;;5102702;28;20203;-77
2023/08/24 04:42:04;;;;;;;9.63;8.77;;;;;;;;;;5094242;28;20630;-77
2023/08/24 04:44:31;;;;;;;10.63;9.20;;;;;;;;;;5096265;28;20204;-77
2023/08/24 04:46:58;;;;;;;9.90;9.10;;;;;;;;;;5096743;28;20249;-77
2023/08/24 04:49:25;;;;;;;10.50;9.60;;;;;;;;;;5103523;28;20624;-78
2023/08/24 04:51:51;;;;;;;10.83;9.83;;;;;;;;;;5101619;28;20212;-77
2023/08/24 04:54:20;;;;;;;9.67;8.63;;;;;;;;;;5102861;28;20690;-77
2023/08/24 04:56:46;;;;;;;10.27;9.20;;;;;;;;;;5109026;28;20264;-76
2023/08/24 04:59:14;;;;;;;12.03;9.40;;;;;;;;;;5103004;28;20624;-77
2023/08/24 05:01:40;;;;;;;9.43;8.53;;;;;;;;;;5096367;28;20231;-77
2023/08/24 05:04:08;;;;;;;10.53;9.63;;;;;;;;;;5103560;28;20581;-77
2023/08/24 05:06:34;;;;;;;11.03;9.90;;;;;;;;;;5101240;28;20547;-77
2023/08/24 05:09:01;;;;;;;12.87;9.67;;;;;;;;;;5102735;28;20196;-77
2023/08/24 05:11:30;;;;;;;9.47;8.50;;;;;;;;;;5097464;28;20268;-77
2023/08/24 05:13:57;;;;;;;10.40;9.37;;;;;;;;;;5101045;28;20662;-77
2023/08/24 05:16:24;;;;;;;16.97;9.73;;;;;;;;;;5107271;28;20245;-77
2023/08/24 05:18:51;;;;;;;11.57;10.10;;;;;;;;;;5104333;28;20207;-78
2023/08/24 05:21:18;;;;;;;12.07;10.47;;;;;;;;;;5094238;28;20192;-77
2023/08/24 05:23:44;;;;;;;12.17;10.70;;;;;;;;;;5103205;28;20567;-77
2023/08/24 05:26:11;;;;;;;10.40;9.40;;;;;;;;;;5112828;28;20195;-77
2023/08/24 05:28:39;;;;;;;19.20;10.77;;;;;;;;;;5112861;28;20202;-77
2023/08/24 05:31:06;;;;;;;14.67;9.67;;;;;;;;;;5112951;28;20222;-77
2023/08/24 05:33:33;;;;;;;14.60;10.40;;;;;;;;;;5113384;28;20606;-77
2023/08/24 05:35:59;;;;;;;15.63;9.60;;;;;;;;;;5099185;28;20574;-77
2023/08/24 05:38:26;;;;;;;13.27;9.77;;;;;;;;;;5101589;28;20204;-77
2023/08/24 05:40:53;;;;;;;12.50;10.63;;;;;;;;;;5112067;28;20195;-77
2023/08/24 05:43:20;;;;;;;16.80;10.53;;;;;;;;;;5099731;28;20246;-77
2023/08/24 05:45:48;;;;;;;15.00;10.43;;;;;;;;;;5106317;28;20250;-77
2023/08/24 05:48:15;;;;;;;17.13;10.33;;;;;;;;;;5105363;28;20202;-77
2023/08/24 05:50:46;;;;;;;23.10;10.23;;;;;;;;;;5105735;28;20597;-77
2023/08/24 05:53:12;;;;;;;12.73;9.90;;;;;;;;;;5105038;28;20204;-77
2023/08/24 05:55:39;;;;;;;12.43;9.90;;;;;;;;;;5099050;28;20203;-77
2023/08/24 05:58:06;;;;;;;16.63;9.63;;;;;;;;;;5098338;28;20202;-77
2023/08/24 06:00:33;;;;;;;19.20;9.63;;;;;;;;;;5106793;28;20204;-77
2023/08/24 06:03:02;;;;;;;15.33;9.27;;;;;;;;;;5106761;28;20203;-77
2023/08/24 06:05:31;;;;;;;9.03;8.30;;;;;;;;;;5092039;28;20203;-77
2023/08/24 06:07:58;;;;;;;10.07;9.13;;;;;;;;;;5107671;28;20249;-77
2023/08/24 06:10:26;;;;;;;8.43;7.70;;;;;;;;;;5103509;28;20273;-77
2023/08/24 06:12:53;;;;;;;10.93;8.10;;;;;;;;;;5106487;28;20265;-77
2023/08/24 06:15:23;;;;;;;8.17;7.40;;;;;;;;;;5102502;28;20200;-77
2023/08/24 06:17:50;;;;;;;8.93;8.03;;;;;;;;;;5094536;28;20252;-77
2023/08/24 06:20:19;;;;;;;9.13;8.33;;;;;;;;;;5102045;28;20200;-77
2023/08/24 06:22:46;;;;;;;9.32;8.35;;;;;;;;;;5091783;28;20693;-77
2023/08/24 06:25:12;;;;;;;8.37;7.53;;;;;;;;;;5102553;28;20196;-77
2023/08/24 06:27:39;;;;;;;9.00;8.30;;;;;;;;;;5090821;28;20200;-77
2023/08/24 06:30:07;;;;;;;9.25;8.02;;;;;;;;;;5102192;28;20195;-78
2023/08/24 06:32:34;;;;;;;11.73;7.78;;;;;;;;;;5111767;28;20220;-77
2023/08/24 06:35:01;;;;;;;12.88;8.55;;;;;;;;;;5100338;28;20202;-77
2023/08/24 06:37:29;;;;;;;9.43;8.57;;;;;;;;;;5105697;28;20257;-78
2023/08/24 06:39:56;;;;;;;7.93;7.22;;;;;;;;;;5091562;28;20277;-77
2023/08/24 06:42:23;;;;;;;8.98;8.27;;;;;;;;;;5091700;28;20192;-77
2023/08/24 06:44:50;;;;;;;8.80;8.07;;;;;;;;;;5103368;28;20223;-77
2023/08/24 06:47:17;;;;;;;10.35;7.93;;;;;;;;;;5093024;28;20287;-77
2023/08/24 06:49:44;;;;;;;11.23;7.90;;;;;;;;;;5104769;28;20204;-77
2023/08/24 06:52:11;;;;;;;7.18;6.68;;;;;;;;;;5091068;28;20224;-77
2023/08/24 06:54:39;;;;;;;9.93;7.90;;;;;;;;;;5104672;28;20219;-77
2023/08/24 06:57:07;;;;;;;13.32;7.57;;;;;;;;;;5092943;28;20636;-77
2023/08/24 06:59:34;;;;;;;9.18;8.48;;;;;;;;;;5104129;28;20196;-77
2023/08/24 07:02:01;;;;;;;9.25;8.32;;;;;;;;;;5111352;28;20192;-77
2023/08/24 07:04:28;;;;;;;9.05;7.57;;;;;;;;;;5099021;28;20211;-77
2023/08/24 07:06:54;;;;;;;9.30;8.45;;;;;;;;;;5097488;28;20211;-77
2023/08/24 07:09:21;;;;;;;10.30;8.52;;;;;;;;;;5111217;28;20199;-77
2023/08/24 07:11:50;;;;;;;8.10;7.30;;;;;;;;;;5111139;28;20247;-77
2023/08/24 07:14:17;;;;;;;10.25;8.25;;;;;;;;;;5109214;28;20206;-77
2023/08/24 07:16:43;;;;;;;10.65;8.43;;;;;;;;;;5099782;28;20669;-77
2023/08/24 07:19:10;;;;;;;12.95;9.15;;;;;;;;;;5097004;28;20192;-77
2023/08/24 07:21:37;;;;;;;9.60;8.25;;;;;;;;;;5103379;28;20214;-77
2023/08/24 07:24:04;;;;;;;10.68;8.30;;;;;;;;;;5092046;28;20192;-77
2023/08/24 07:26:31;;;;;;;9.57;7.70;;;;;;;;;;5111194;28;20200;-77
2023/08/24 07:28:59;;;;;;;9.13;7.68;;;;;;;;;;5096109;28;20662;-77
2023/08/24 07:31:26;;;;;;;9.18;8.02;;;;;;;;;;5105460;28;20220;-77
2023/08/24 07:33:53;;;;;;;7.97;7.28;;;;;;;;;;5105375;28;20249;-79
2023/08/24 07:36:20;;;;;;;8.35;7.55;;;;;;;;;;5098684;28;20199;-77
2023/08/24 07:38:47;;;;;;;9.90;7.25;;;;;;;;;;5097378;28;20555;-77
2023/08/24 07:41:14;;;;;;;11.10;7.57;;;;;;;;;;5114805;28;20630;-77
2023/08/24 07:43:41;;;;;;;10.35;7.78;;;;;;;;;;5114903;28;20210;-78
2023/08/24 07:46:09;;;;;;;9.95;7.68;;;;;;;;;;5106477;28;20192;-77
2023/08/24 07:48:36;;;;;;;8.93;8.10;;;;;;;;;;5110289;28;20208;-77
2023/08/24 07:51:03;;;;;;;10.82;7.85;;;;;;;;;;5106580;28;20616;-77
2023/08/24 07:53:32;;;;;;;8.25;7.38;;;;;;;;;;5105885;28;20239;-77
2023/08/24 07:55:59;;;;;;;9.20;8.13;;;;;;;;;;5094773;28;20196;-77
2023/08/24 07:58:26;;;;;;;9.25;8.43;;;;;;;;;;5107388;28;20196;-77
2023/08/24 08:00:53;;;;;;;9.80;8.80;;;;;;;;;;5105174;28;20196;-77
2023/08/24 08:03:21;;;;;;;9.20;8.00;;;;;;;;;;5096610;28;20193;-77
2023/08/24 08:05:48;;;;;;;7.75;7.07;;;;;;;;;;5094417;28;20204;-77
2023/08/24 08:08:15;;;;;;;7.25;6.05;;;;;;;;;;5095913;28;20257;-78
2023/08/24 08:10:42;;;;;;;8.40;6.70;;;;;;;;;;5103498;28;20199;-77
2023/08/24 08:13:11;;;;;;;6.63;6.05;;;;;;;;;;5093866;28;20647;-77
2023/08/24 08:15:39;;;;;;;9.75;6.03;;;;;;;;;;5106613;28;20554;-77
2023/08/24 08:18:06;;;;;;;9.70;6.93;;;;;;;;;;5108598;28;20693;-77
2023/08/24 08:20:34;;;;;;;9.20;6.25;;;;;;;;;;5106282;28;20195;-77
2023/08/24 08:23:01;;;;;;;6.82;6.13;;;;;;;;;;5100326;28;20195;-77
2023/08/24 08:25:28;;;;;;;11.20;5.65;;;;;;;;;;5114764;28;20626;-77
2023/08/24 08:27:54;;;;;;;7.72;6.20;;;;;;;;;;5114008;28;20195;-77
2023/08/24 08:30:21;;;;;;;8.45;6.25;;;;;;;;;;5113940;28;20654;-77
2023/08/24 08:32:50;;;;;;;6.90;6.18;;;;;;;;;;5100169;28;20314;-77
2023/08/24 08:35:17;;;;;;;7.15;6.45;;;;;;;;;;5113913;28;20615;-78
2023/08/24 08:37:46;;;;;;;7.72;5.90;;;;;;;;;;5099304;28;20196;-77
2023/08/24 08:40:13;;;;;;;11.50;6.63;;;;;;;;;;5100684;28;20208;-77
2023/08/24 08:42:40;;;;;;;8.88;5.97;;;;;;;;;;5100347;28;20594;-77
2023/08/24 08:45:10;;;;;;;5.70;5.20;;;;;;;;;;5100433;28;20819;-77
2023/08/24 08:47:37;;;;;;;6.00;5.50;;;;;;;;;;5114343;28;20191;-77
2023/08/24 08:50:05;;;;;;;8.48;5.82;;;;;;;;;;5098688;28;20200;-77
2023/08/24 08:52:33;;;;;;;6.50;5.75;;;;;;;;;;5097851;28;20234;-77
2023/08/24 08:55:06;;;;;;;5.65;5.18;;;;;;;;;;5100190;28;20227;-77
2023/08/24 08:57:33;;;;;;;6.22;5.07;;;;;;;;;;5107522;28;20196;-77
2023/08/24 09:00:00;;;;;;;7.28;5.45;;;;;;;;;;5109285;28;20210;-77
2023/08/24 09:02:27;;;;;;;5.65;5.18;;;;;;;;;;5114039;28;20198;-77
2023/08/24 09:04:54;;;;;;;4.85;4.55;;;;;;;;;;5113929;28;20199;-77
2023/08/24 09:07:21;;;;;;;4.90;4.50;;;;;;;;;;5103566;28;20203;-77
2023/08/24 09:09:48;;;;;;;4.28;3.92;;;;;;;;;;5106747;28;20193;-77
2023/08/24 09:12:16;;;;;;;5.32;4.82;;;;;;;;;;5102936;28;20307;-77
2023/08/24 09:14:42;;;;;;;4.05;3.75;;;;;;;;;;5110179;28;20196;-77
2023/08/24 09:17:09;;;;;;;4.10;3.80;;;;;;;;;;5093266;28;20542;-77
2023/08/24 09:19:38;;;;;;;5.88;4.32;;;;;;;;;;5102269;28;20253;-77
2023/08/24 09:22:05;;;;;;;5.72;4.30;;;;;;;;;;5093179;28;20200;-77
2023/08/24 09:24:32;;;;;;;5.10;4.60;;;;;;;;;;5102857;28;20200;-77
2023/08/24 09:27:00;;;;;;;4.72;4.43;;;;;;;;;;5093042;28;20196;-77
2023/08/24 09:29:28;;;;;;;5.15;4.68;;;;;;;;;;5108101;28;20193;-77
2023/08/24 09:31:55;;;;;;;5.60;5.10;;;;;;;;;;5092945;28;20203;-77
2023/08/24 09:34:26;;;;;;;6.93;5.03;;;;;;;;;;5097497;28;20261;-77
2023/08/24 09:36:53;;;;;;;6.28;4.60;;;;;;;;;;5101611;28;20196;-77
2023/08/24 09:39:21;;;;;;;4.95;4.57;;;;;;;;;;5112137;28;20195;-77
2023/08/24 09:41:49;;;;;;;5.80;5.30;;;;;;;;;;5099169;28;20196;-78
2023/08/24 09:44:18;;;;;;;5.68;4.47;;;;;;;;;;5112993;28;20192;-77
2023/08/24 09:46:46;;;;;;;5.03;4.63;;;;;;;;;;5112908;28;20196;-78
2023/08/24 09:49:13;;;;;;;5.57;5.03;;;;;;;;;;5104219;28;20196;-78
2023/08/24 09:51:41;;;;;;;5.72;4.35;;;;;;;;;;5092404;28;20208;-78
2023/08/24 09:54:09;;;;;;;4.78;4.38;;;;;;;;;;5103534;28;20240;-77
2023/08/24 09:56:38;;;;;;;4.80;4.35;;;;;;;;;;5108704;28;20302;-77
2023/08/24 09:59:13;;;;;;;4.78;4.38;;;;;;;;;;5103500;28;20205;-78
2023/08/24 10:01:47;;;;;;;5.15;4.75;;;;;;;;;;5108798;28;20202;-77
2023/08/24 10:04:16;;;;;;;4.68;4.35;;;;;;;;;;5112292;28;20196;-77
2023/08/24 10:06:43;;;;;;;5.05;4.63;;;;;;;;;;5098335;28;20696;-77
2023/08/24 10:09:15;;;;;;;4.82;4.47;;;;;;;;;;5112647;28;20205;-77
2023/08/24 10:11:49;;;;;;;5.70;5.20;;;;;;;;;;5112272;28;20287;-79
2023/08/24 10:14:21;;;;;;;6.90;5.75;;;;;;;;;;5098250;28;20269;-78
2023/08/24 10:16:48;;;;;;;8.45;5.63;;;;;;;;;;5112799;28;20203;-77
2023/08/24 10:19:17;;;;;;;6.25;4.93;;;;;;;;;;5110649;28;20230;-78
2023/08/24 10:21:44;;;;;;;9.23;5.32;;;;;;;;;;5100523;28;20279;-77
2023/08/24 10:24:10;;;;;;;5.78;5.28;;;;;;;;;;5098296;28;20200;-77
2023/08/24 10:26:38;;;;;;;5.72;5.28;;;;;;;;;;5104157;28;20666;-78
2023/08/24 10:29:06;;;;;;;5.95;5.38;;;;;;;;;;5104936;28;20207;-77
2023/08/24 10:31:34;;;;;;;6.15;5.65;;;;;;;;;;5091706;28;20196;-78
2023/08/24 10:34:02;;;;;;;6.28;5.78;;;;;;;;;;5108246;28;20222;-77
2023/08/24 10:36:33;;;;;;;5.85;5.28;;;;;;;;;;5102120;28;20639;-77
2023/08/24 10:39:05;;;;;;;8.20;6.57;;;;;;;;;;5107145;28;20200;-78
2023/08/24 10:41:47;;;;;;;6.30;5.68;;;;;;;;;;5103452;28;20199;-77
2023/08/24 10:44:21;;;;;;;7.13;5.68;;;;;;;;;;5105951;28;20203;-77
2023/08/24 10:47:09;;;;;;;7.25;6.60;;;;;;;;;;5107103;28;20210;-78
2023/08/24 10:49:35;;;;;;;7.40;6.38;;;;;;;;;;5099932;28;20207;-78
2023/08/24 10:52:20;;;;;;;7.43;6.43;;;;;;;;;;5108303;28;20195;-78
2023/08/24 10:54:48;;;;;;;11.90;6.40;;;;;;;;;;5105290;28;20620;-78
2023/08/24 10:57:23;;;;;;;7.63;6.93;;;;;;;;;;5104064;28;20203;-78
2023/08/24 11:00:08;;;;;;;15.60;6.68;;;;;;;;;;5106758;28;20198;-77
2023/08/24 11:02:46;;;;;;;7.07;5.80;;;;;;;;;;5111399;28;20207;-77
2023/08/24 11:05:20;;;;;;;6.90;6.20;;;;;;;;;;5107102;28;20249;-78
2023/08/24 11:07:52;;;;;;;7.13;6.63;;;;;;;;;;5105154;28;20195;-77
2023/08/24 11:10:20;;;;;;;6.88;6.38;;;;;;;;;;5097943;28;20198;-77
2023/08/24 11:13:06;;;;;;;6.65;6.15;;;;;;;;;;5110211;28;20695;-77
2023/08/24 11:15:33;;;;;;;7.63;6.70;;;;;;;;;;5095469;28;20188;-77
2023/08/24 11:18:13;;;;;;;6.63;6.03;;;;;;;;;;5111515;28;20199;-77
2023/08/24 11:20:41;;;;;;;7.13;6.47;;;;;;;;;;5110935;28;20201;-78
2023/08/24 11:23:10;;;;;;;6.43;5.93;;;;;;;;;;5112701;28;20202;-78
2023/08/24 11:25:37;;;;;;;14.32;6.80;;;;;;;;;;5097662;28;20203;-77
2023/08/24 11:28:04;;;;;;;6.55;6.10;;;;;;;;;;5097834;28;20228;-78
2023/08/24 11:30:32;;;;;;;6.28;5.78;;;;;;;;;;5112515;28;20204;-77
2023/08/24 11:32:59;;;;;;;6.95;6.38;;;;;;;;;;5107082;28;20230;-77
2023/08/24 11:35:26;;;;;;;10.50;6.55;;;;;;;;;;5117734;28;20286;-78
2023/08/24 11:37:53;;;;;;;8.15;6.75;;;;;;;;;;5104525;28;20206;-78
2023/08/24 11:40:26;;;;;;;10.27;6.07;;;;;;;;;;5102567;28;20192;-77
2023/08/24 11:42:54;;;;;;;7.32;5.78;;;;;;;;;;5107111;28;20210;-79
2023/08/24 11:45:21;;;;;;;7.00;6.40;;;;;;;;;;5100981;28;20200;-78
2023/08/24 11:47:48;;;;;;;7.25;5.63;;;;;;;;;;5104762;28;20728;-78
2023/08/24 11:50:16;;;;;;;8.07;7.30;;;;;;;;;;5116229;28;20199;-78
2023/08/24 11:52:43;;;;;;;8.02;7.25;;;;;;;;;;5106003;28;20200;-78
2023/08/24 11:55:10;;;;;;;7.05;6.43;;;;;;;;;;5117534;28;20250;-77
2023/08/24 11:57:39;;;;;;;8.20;7.00;;;;;;;;;;5107743;28;20740;-77
2023/08/24 12:00:06;;;;;;;7.68;7.07;;;;;;;;;;5112772;28;20222;-78
2023/08/24 12:02:34;;;;;;;7.20;6.70;;;;;;;;;;5109022;28;20573;-78
2023/08/24 12:05:02;;;;;;;7.82;7.13;;;;;;;;;;5099536;28;20199;-77
2023/08/24 12:07:31;;;;;;;12.07;8.73;;;;;;;;;;5108435;28;20205;-78
2023/08/24 12:10:01;;;;;;;8.52;7.85;;;;;;;;;;5107575;28;20191;-77
2023/08/24 12:12:28;;;;;;;7.85;7.25;;;;;;;;;;5104451;28;20635;-77
2023/08/24 12:14:57;;;;;;;8.35;7.53;;;;;;;;;;5103727;28;20241;-77
2023/08/24 12:17:24;;;;;;;8.60;7.72;;;;;;;;;;5103680;28;20612;-78
2023/08/24 12:19:58;;;;;;;13.63;8.07;;;;;;;;;;5103350;28;20231;-77
2023/08/24 12:22:25;;;;;;;9.07;8.27;;;;;;;;;;5103054;28;20554;-78
2023/08/24 12:24:52;;;;;;;15.18;8.63;;;;;;;;;;5105155;28;20218;-77
2023/08/24 12:27:19;;;;;;;10.75;7.85;;;;;;;;;;5099513;28;20200;-77
2023/08/24 12:29:46;;;;;;;8.55;7.75;;;;;;;;;;5108971;28;20196;-77
2023/08/24 12:32:16;;;;;;;8.13;7.38;;;;;;;;;;5096029;28;20196;-77
2023/08/24 12:34:43;;;;;;;11.40;7.72;;;;;;;;;;5113818;28;20223;-77
2023/08/24 12:37:09;;;;;;;8.93;7.07;;;;;;;;;;5111201;28;20248;-78
2023/08/24 12:39:39;;;;;;;7.80;7.07;;;;;;;;;;5102539;28;20195;-78
2023/08/24 12:42:06;;;;;;;7.10;6.60;;;;;;;;;;5113361;28;20195;-78
2023/08/24 12:44:33;;;;;;;7.72;7.13;;;;;;;;;;5105831;28;20200;-77
2023/08/24 12:47:00;;;;;;;7.95;7.35;;;;;;;;;;5093866;28;20262;-77
2023/08/24 12:49:30;;;;;;;7.53;6.93;;;;;;;;;;5104006;28;20195;-77
2023/08/24 12:51:59;;;;;;;7.68;7.07;;;;;;;;;;5096418;28;20245;-77
2023/08/24 12:54:26;;;;;;;8.63;7.93;;;;;;;;;;5105036;28;20235;-77
2023/08/24 12:56:53;;;;;;;6.88;6.20;;;;;;;;;;5101240;28;20196;-77
2023/08/24 12:59:20;;;;;;;7.20;6.43;;;;;;;;;;5113373;28;20196;-77
2023/08/24 13:01:47;;;;;;;8.95;6.38;;;;;;;;;;5100394;28;20191;-77
2023/08/24 13:04:13;;;;;;;7.72;7.15;;;;;;;;;;5101306;28;20200;-77
2023/08/24 13:06:42;;;;;;;8.57;7.63;;;;;;;;;;5112455;28;20684;-77
2023/08/24 13:09:09;;;;;;;8.73;8.02;;;;;;;;;;5113600;28;20204;-77
2023/08/24 13:11:36;;;;;;;11.98;9.10;;;;;;;;;;5093555;28;20204;-77
2023/08/24 13:14:03;;;;;;;9.48;7.20;;;;;;;;;;5106302;28;20624;-77
2023/08/24 13:16:29;;;;;;;10.23;9.35;;;;;;;;;;5111999;28;20202;-77
2023/08/24 13:18:56;;;;;;;8.15;7.35;;;;;;;;;;5113414;28;20201;-77
2023/08/24 13:21:23;;;;;;;14.70;9.30;;;;;;;;;;5107622;28;20192;-77
2023/08/24 13:23:51;;;;;;;14.68;9.15;;;;;;;;;;5106129;28;20227;-77
2023/08/24 13:26:19;;;;;;;10.48;8.55;;;;;;;;;;5093814;28;20196;-77
2023/08/24 13:28:45;;;;;;;9.90;8.85;;;;;;;;;;5105995;28;20227;-77
2023/08/24 13:31:12;;;;;;;9.25;8.10;;;;;;;;;;5113682;28;20206;-77
2023/08/24 13:33:39;;;;;;;9.18;8.38;;;;;;;;;;5112899;28;20227;-77
2023/08/24 13:36:06;;;;;;;10.02;9.20;;;;;;;;;;5113246;28;20273;-78
2023/08/24 13:38:33;;;;;;;9.18;8.35;;;;;;;;;;5099052;28;20241;-77
2023/08/24 13:41:01;;;;;;;10.13;8.68;;;;;;;;;;5092780;28;20204;-77
2023/08/24 13:43:28;;;;;;;11.38;8.88;;;;;;;;;;5104062;28;20210;-77
2023/08/24 13:45:55;;;;;;;8.63;7.72;;;;;;;;;;5106140;28;20206;-77
2023/08/24 13:48:23;;;;;;;8.35;7.80;;;;;;;;;;5093296;28;20624;-77
2023/08/24 13:50:51;;;;;;;9.25;8.55;;;;;;;;;;5104799;28;20207;-77
2023/08/24 13:53:18;;;;;;;9.43;8.50;;;;;;;;;;5105986;28;20572;-77
2023/08/24 13:55:45;;;;;;;8.88;8.07;;;;;;;;;;5099749;28;20196;-77
2023/08/24 13:58:13;;;;;;;9.23;8.52;;;;;;;;;;5111567;28;20740;-77
2023/08/24 14:00:40;;;;;;;8.77;7.97;;;;;;;;;;5100690;28;20206;-77
2023/08/24 14:03:07;;;;;;;9.38;8.57;;;;;;;;;;5095980;28;20204;-78
2023/08/24 14:05:34;;;;;;;8.45;7.85;;;;;;;;;;5092262;28;20663;-77
2023/08/24 14:08:02;;;;;;;8.88;7.97;;;;;;;;;;5105517;28;20670;-77
2023/08/24 14:10:29;;;;;;;8.88;8.10;;;;;;;;;;5102422;28;20253;-77
2023/08/24 14:12:56;;;;;;;9.43;8.63;;;;;;;;;;5094838;28;20199;-77
2023/08/24 14:15:24;;;;;;;10.18;9.13;;;;;;;;;;5102459;28;20597;-77
2023/08/24 14:17:51;;;;;;;8.35;7.70;;;;;;;;;;5111964;28;20191;-77
2023/08/24 14:20:18;;;;;;;9.75;8.95;;;;;;;;;;5100657;28;20211;-77
2023/08/24 14:22:48;;;;;;;11.05;8.30;;;;;;;;;;5091927;28;20209;-77
2023/08/24 14:25:15;;;;;;;8.85;7.97;;;;;;;;;;5106636;28;20277;-78
2023/08/24 14:27:42;;;;;;;9.07;8.27;;;;;;;;;;5095622;28;20553;-76
2023/08/24 14:30:09;;;;;;;10.18;8.38;;;;;;;;;;5109108;28;20484;-78
2023/08/24 14:32:37;;;;;;;10.88;9.07;;;;;;;;;;5112444;28;20198;-76
2023/08/24 14:35:05;;;;;;;9.93;9.00;;;;;;;;;;5101628;28;20243;-77
2023/08/24 14:37:33;;;;;;;8.98;8.27;;;;;;;;;;5094421;28;20696;-78
2023/08/24 14:40:00;;;;;;;17.98;9.15;;;;;;;;;;5095812;28;20196;-78
2023/08/24 14:42:26;;;;;;;9.23;8.32;;;;;;;;;;5100127;28;20219;-79